sensor_id;sensor_type;location;lat;lon;timestamp;P1;durP1;ratioP1;P2;durP2;ratioP2
65871;SDS011;52653;50.080;21.992;2023-07-16T00:01:39;8.40;;;6.50;;
65871;SDS011;52653;50.080;21.992;2023-07-16T00:04:18;6.70;;;5.80;;
65871;SDS011;52653;50.080;21.992;2023-07-16T00:07:11;7.20;;;5.70;;
65871;SDS011;52653;50.080;21.992;2023-07-16T00:09:47;7.30;;;6.10;;
65871;SDS011;52653;50.080;21.992;2023-07-16T00:12:30;6.80;;;6.10;;
65871;SDS011;52653;50.080;21.992;2023-07-16T00:15:14;7.80;;;6.50;;
65871;SDS011;52653;50.080;21.992;2023-07-16T00:17:59;8.20;;;6.20;;
65871;SDS011;52653;50.080;21.992;2023-07-16T00:23:38;10.60;;;6.90;;
65871;SDS011;52653;50.080;21.992;2023-07-16T00:26:31;8.00;;;7.20;;
65871;SDS011;52653;50.080;21.992;2023-07-16T00:29:13;8.40;;;7.10;;
65871;SDS011;52653;50.080;21.992;2023-07-16T00:31:57;7.70;;;6.60;;
65871;SDS011;52653;50.080;21.992;2023-07-16T00:34:43;9.40;;;6.70;;
65871;SDS011;52653;50.080;21.992;2023-07-16T00:37:36;7.80;;;6.70;;
65871;SDS011;52653;50.080;21.992;2023-07-16T00:40:12;7.50;;;6.70;;
65871;SDS011;52653;50.080;21.992;2023-07-16T00:43:06;8.30;;;6.60;;
65871;SDS011;52653;50.080;21.992;2023-07-16T00:45:51;8.20;;;7.10;;
65871;SDS011;52653;50.080;21.992;2023-07-16T00:48:38;8.90;;;7.20;;
65871;SDS011;52653;50.080;21.992;2023-07-16T00:51:14;9.20;;;6.70;;
65871;SDS011;52653;50.080;21.992;2023-07-16T00:54:00;8.90;;;7.40;;
65871;SDS011;52653;50.080;21.992;2023-07-16T00:56:53;8.10;;;7.10;;
65871;SDS011;52653;50.080;21.992;2023-07-16T00:59:40;7.70;;;6.90;;
65871;SDS011;52653;50.080;21.992;2023-07-16T01:02:33;8.40;;;7.30;;
65871;SDS011;52653;50.080;21.992;2023-07-16T01:05:27;8.10;;;7.30;;
65871;SDS011;52653;50.080;21.992;2023-07-16T01:08:20;8.70;;;7.60;;
65871;SDS011;52653;50.080;21.992;2023-07-16T01:11:20;8.80;;;7.90;;
65871;SDS011;52653;50.080;21.992;2023-07-16T01:14:14;9.90;;;8.30;;
65871;SDS011;52653;50.080;21.992;2023-07-16T01:16:58;9.60;;;7.70;;
65871;SDS011;52653;50.080;21.992;2023-07-16T01:19:38;10.20;;;8.70;;
65871;SDS011;52653;50.080;21.992;2023-07-16T01:22:41;9.60;;;8.00;;
65871;SDS011;52653;50.080;21.992;2023-07-16T01:25:48;10.90;;;9.10;;
65871;SDS011;52653;50.080;21.992;2023-07-16T01:31:40;9.30;;;8.30;;
65871;SDS011;52653;50.080;21.992;2023-07-16T01:34:35;10.20;;;8.60;;
65871;SDS011;52653;50.080;21.992;2023-07-16T01:37:18;10.10;;;9.10;;
65871;SDS011;52653;50.080;21.992;2023-07-16T01:40:12;10.70;;;8.50;;
65871;SDS011;52653;50.080;21.992;2023-07-16T01:42:57;10.10;;;8.80;;
65871;SDS011;52653;50.080;21.992;2023-07-16T01:45:41;10.10;;;9.00;;
65871;SDS011;52653;50.080;21.992;2023-07-16T01:48:30;10.40;;;9.30;;
65871;SDS011;52653;50.080;21.992;2023-07-16T01:51:19;10.80;;;9.10;;
65871;SDS011;52653;50.080;21.992;2023-07-16T01:54:12;10.10;;;9.00;;
65871;SDS011;52653;50.080;21.992;2023-07-16T01:57:07;10.30;;;8.80;;
65871;SDS011;52653;50.080;21.992;2023-07-16T01:59:39;9.70;;;8.60;;
65871;SDS011;52653;50.080;21.992;2023-07-16T02:02:26;9.60;;;8.60;;
65871;SDS011;52653;50.080;21.992;2023-07-16T02:05:10;9.60;;;8.60;;
65871;SDS011;52653;50.080;21.992;2023-07-16T02:07:50;10.40;;;8.30;;
65871;SDS011;52653;50.080;21.992;2023-07-16T02:10:34;10.70;;;9.60;;
65871;SDS011;52653;50.080;21.992;2023-07-16T02:13:18;9.60;;;8.50;;
65871;SDS011;52653;50.080;21.992;2023-07-16T02:16:12;9.70;;;8.70;;
65871;SDS011;52653;50.080;21.992;2023-07-16T02:19:04;9.90;;;8.70;;
65871;SDS011;52653;50.080;21.992;2023-07-16T02:21:50;9.50;;;8.20;;
65871;SDS011;52653;50.080;21.992;2023-07-16T02:24:44;10.70;;;9.00;;
65871;SDS011;52653;50.080;21.992;2023-07-16T02:27:23;10.80;;;9.70;;
65871;SDS011;52653;50.080;21.992;2023-07-16T02:30:16;10.60;;;9.00;;
65871;SDS011;52653;50.080;21.992;2023-07-16T02:33:04;12.00;;;9.80;;
65871;SDS011;52653;50.080;21.992;2023-07-16T02:35:40;10.70;;;9.60;;
65871;SDS011;52653;50.080;21.992;2023-07-16T02:38:36;11.30;;;9.60;;
65871;SDS011;52653;50.080;21.992;2023-07-16T02:41:13;10.50;;;9.00;;
65871;SDS011;52653;50.080;21.992;2023-07-16T02:44:06;9.50;;;8.50;;
65871;SDS011;52653;50.080;21.992;2023-07-16T02:46:45;9.90;;;8.40;;
65871;SDS011;52653;50.080;21.992;2023-07-16T02:49:29;11.40;;;9.40;;
65871;SDS011;52653;50.080;21.992;2023-07-16T02:52:22;10.00;;;9.00;;
65871;SDS011;52653;50.080;21.992;2023-07-16T02:55:07;9.90;;;8.90;;
65871;SDS011;52653;50.080;21.992;2023-07-16T02:57:51;10.40;;;9.40;;
65871;SDS011;52653;50.080;21.992;2023-07-16T03:00:45;10.60;;;9.60;;
65871;SDS011;52653;50.080;21.992;2023-07-16T03:03:41;9.80;;;8.90;;
65871;SDS011;52653;50.080;21.992;2023-07-16T03:06:34;9.70;;;8.60;;
65871;SDS011;52653;50.080;21.992;2023-07-16T03:09:29;12.20;;;9.40;;
65871;SDS011;52653;50.080;21.992;2023-07-16T03:12:08;11.20;;;10.00;;
65871;SDS011;52653;50.080;21.992;2023-07-16T03:14:53;11.70;;;10.40;;
65871;SDS011;52653;50.080;21.992;2023-07-16T03:17:46;12.50;;;10.40;;
65871;SDS011;52653;50.080;21.992;2023-07-16T03:20:21;12.00;;;10.80;;
65871;SDS011;52653;50.080;21.992;2023-07-16T03:23:16;12.60;;;11.30;;
65871;SDS011;52653;50.080;21.992;2023-07-16T03:26:03;14.40;;;12.30;;
65871;SDS011;52653;50.080;21.992;2023-07-16T03:28:54;12.60;;;11.30;;
65871;SDS011;52653;50.080;21.992;2023-07-16T03:31:34;12.10;;;10.90;;
65871;SDS011;52653;50.080;21.992;2023-07-16T03:34:20;11.60;;;10.40;;
65871;SDS011;52653;50.080;21.992;2023-07-16T03:37:13;12.10;;;10.20;;
65871;SDS011;52653;50.080;21.992;2023-07-16T03:40:13;10.70;;;9.60;;
65871;SDS011;52653;50.080;21.992;2023-07-16T03:42:58;11.00;;;9.90;;
65871;SDS011;52653;50.080;21.992;2023-07-16T03:45:43;11.20;;;10.00;;
65871;SDS011;52653;50.080;21.992;2023-07-16T03:48:36;10.40;;;9.30;;
65871;SDS011;52653;50.080;21.992;2023-07-16T03:51:29;10.60;;;9.50;;
65871;SDS011;52653;50.080;21.992;2023-07-16T03:54:15;10.70;;;9.60;;
65871;SDS011;52653;50.080;21.992;2023-07-16T03:57:09;11.10;;;9.10;;
65871;SDS011;52653;50.080;21.992;2023-07-16T03:59:52;12.00;;;8.80;;
65871;SDS011;52653;50.080;21.992;2023-07-16T04:02:44;8.30;;;7.20;;
65871;SDS011;52653;50.080;21.992;2023-07-16T04:05:38;8.80;;;7.90;;
65871;SDS011;52653;50.080;21.992;2023-07-16T04:08:31;7.90;;;7.10;;
65871;SDS011;52653;50.080;21.992;2023-07-16T04:11:18;7.90;;;6.90;;
65871;SDS011;52653;50.080;21.992;2023-07-16T04:13:57;8.60;;;6.30;;
65871;SDS011;52653;50.080;21.992;2023-07-16T04:16:29;7.50;;;6.20;;
65871;SDS011;52653;50.080;21.992;2023-07-16T04:19:08;6.90;;;5.70;;
65871;SDS011;52653;50.080;21.992;2023-07-16T04:22:01;6.90;;;5.70;;
65871;SDS011;52653;50.080;21.992;2023-07-16T04:24:43;6.80;;;5.40;;
65871;SDS011;52653;50.080;21.992;2023-07-16T04:30:12;6.30;;;5.10;;
65871;SDS011;52653;50.080;21.992;2023-07-16T04:33:05;7.70;;;4.90;;
65871;SDS011;52653;50.080;21.992;2023-07-16T04:35:58;5.80;;;5.00;;
65871;SDS011;52653;50.080;21.992;2023-07-16T04:38:42;7.10;;;5.00;;
65871;SDS011;52653;50.080;21.992;2023-07-16T04:41:29;5.80;;;4.40;;
65871;SDS011;52653;50.080;21.992;2023-07-16T04:44:22;6.40;;;5.10;;
65871;SDS011;52653;50.080;21.992;2023-07-16T04:47:11;6.40;;;5.10;;
65871;SDS011;52653;50.080;21.992;2023-07-16T04:50:05;5.60;;;4.20;;
65871;SDS011;52653;50.080;21.992;2023-07-16T04:52:59;5.90;;;4.00;;
65871;SDS011;52653;50.080;21.992;2023-07-16T04:55:45;5.00;;;3.80;;
65871;SDS011;52653;50.080;21.992;2023-07-16T04:58:27;4.90;;;4.00;;
65871;SDS011;52653;50.080;21.992;2023-07-16T05:01:10;6.50;;;3.70;;
65871;SDS011;52653;50.080;21.992;2023-07-16T05:04:04;4.80;;;4.10;;
65871;SDS011;52653;50.080;21.992;2023-07-16T05:06:57;5.20;;;3.90;;
65871;SDS011;52653;50.080;21.992;2023-07-16T05:09:36;4.70;;;3.60;;
65871;SDS011;52653;50.080;21.992;2023-07-16T05:12:28;5.40;;;3.60;;
65871;SDS011;52653;50.080;21.992;2023-07-16T05:15:17;5.70;;;3.60;;
65871;SDS011;52653;50.080;21.992;2023-07-16T05:18:10;6.00;;;3.80;;
65871;SDS011;52653;50.080;21.992;2023-07-16T05:21:03;6.90;;;3.70;;
65871;SDS011;52653;50.080;21.992;2023-07-16T05:23:56;5.20;;;3.80;;
65871;SDS011;52653;50.080;21.992;2023-07-16T05:26:42;4.70;;;3.30;;
65871;SDS011;52653;50.080;21.992;2023-07-16T05:29:35;5.50;;;3.40;;
65871;SDS011;52653;50.080;21.992;2023-07-16T05:32:43;4.60;;;3.60;;
65871;SDS011;52653;50.080;21.992;2023-07-16T05:35:29;5.20;;;3.60;;
65871;SDS011;52653;50.080;21.992;2023-07-16T05:38:21;4.70;;;3.50;;
65871;SDS011;52653;50.080;21.992;2023-07-16T05:41:14;4.80;;;3.70;;
65871;SDS011;52653;50.080;21.992;2023-07-16T05:44:04;5.00;;;3.60;;
65871;SDS011;52653;50.080;21.992;2023-07-16T05:46:50;5.80;;;3.80;;
65871;SDS011;52653;50.080;21.992;2023-07-16T05:49:45;5.10;;;3.70;;
65871;SDS011;52653;50.080;21.992;2023-07-16T05:52:39;6.90;;;4.00;;
65871;SDS011;52653;50.080;21.992;2023-07-16T05:55:17;5.50;;;3.70;;
65871;SDS011;52653;50.080;21.992;2023-07-16T05:58:03;5.00;;;3.70;;
65871;SDS011;52653;50.080;21.992;2023-07-16T06:00:46;5.90;;;3.70;;
65871;SDS011;52653;50.080;21.992;2023-07-16T06:03:39;5.00;;;3.70;;
65871;SDS011;52653;50.080;21.992;2023-07-16T06:06:27;5.00;;;3.80;;
65871;SDS011;52653;50.080;21.992;2023-07-16T06:09:12;5.80;;;3.90;;
65871;SDS011;52653;50.080;21.992;2023-07-16T06:14:31;4.70;;;3.40;;
65871;SDS011;52653;50.080;21.992;2023-07-16T06:17:24;4.40;;;3.50;;
65871;SDS011;52653;50.080;21.992;2023-07-16T06:20:11;5.10;;;3.90;;
65871;SDS011;52653;50.080;21.992;2023-07-16T06:23:04;4.60;;;3.50;;
65871;SDS011;52653;50.080;21.992;2023-07-16T06:25:47;4.60;;;3.40;;
65871;SDS011;52653;50.080;21.992;2023-07-16T06:28:38;5.00;;;3.50;;
65871;SDS011;52653;50.080;21.992;2023-07-16T06:31:31;6.40;;;3.40;;
65871;SDS011;52653;50.080;21.992;2023-07-16T06:34:13;8.50;;;3.40;;
65871;SDS011;52653;50.080;21.992;2023-07-16T06:37:06;5.50;;;3.50;;
65871;SDS011;52653;50.080;21.992;2023-07-16T06:39:49;5.20;;;3.60;;
65871;SDS011;52653;50.080;21.992;2023-07-16T06:42:35;4.70;;;3.40;;
65871;SDS011;52653;50.080;21.992;2023-07-16T06:45:28;4.80;;;3.20;;
65871;SDS011;52653;50.080;21.992;2023-07-16T06:48:23;4.70;;;3.50;;
65871;SDS011;52653;50.080;21.992;2023-07-16T06:51:19;5.70;;;3.30;;
65871;SDS011;52653;50.080;21.992;2023-07-16T06:54:12;4.80;;;3.30;;
65871;SDS011;52653;50.080;21.992;2023-07-16T06:57:07;6.00;;;3.70;;
65871;SDS011;52653;50.080;21.992;2023-07-16T06:59:59;5.50;;;3.60;;
65871;SDS011;52653;50.080;21.992;2023-07-16T07:02:54;4.70;;;3.40;;
65871;SDS011;52653;50.080;21.992;2023-07-16T07:05:40;5.90;;;3.60;;
65871;SDS011;52653;50.080;21.992;2023-07-16T07:08:32;7.70;;;3.60;;
65871;SDS011;52653;50.080;21.992;2023-07-16T07:11:26;4.10;;;3.30;;
65871;SDS011;52653;50.080;21.992;2023-07-16T07:14:08;4.70;;;3.00;;
65871;SDS011;52653;50.080;21.992;2023-07-16T07:17:00;4.60;;;3.30;;
65871;SDS011;52653;50.080;21.992;2023-07-16T07:19:53;5.40;;;3.50;;
65871;SDS011;52653;50.080;21.992;2023-07-16T07:22:44;4.70;;;3.60;;
65871;SDS011;52653;50.080;21.992;2023-07-16T07:25:37;5.00;;;3.40;;
65871;SDS011;52653;50.080;21.992;2023-07-16T07:28:30;6.40;;;3.60;;
65871;SDS011;52653;50.080;21.992;2023-07-16T07:31:16;5.60;;;3.30;;
65871;SDS011;52653;50.080;21.992;2023-07-16T07:34:10;6.30;;;3.70;;
65871;SDS011;52653;50.080;21.992;2023-07-16T07:36:55;4.60;;;3.50;;
65871;SDS011;52653;50.080;21.992;2023-07-16T07:39:48;5.00;;;3.60;;
65871;SDS011;52653;50.080;21.992;2023-07-16T07:42:42;5.80;;;3.60;;
65871;SDS011;52653;50.080;21.992;2023-07-16T07:45:35;5.50;;;3.80;;
65871;SDS011;52653;50.080;21.992;2023-07-16T07:48:18;6.50;;;3.50;;
65871;SDS011;52653;50.080;21.992;2023-07-16T07:51:11;5.40;;;3.50;;
65871;SDS011;52653;50.080;21.992;2023-07-16T07:54:06;4.40;;;3.40;;
65871;SDS011;52653;50.080;21.992;2023-07-16T07:56:53;5.20;;;3.20;;
65871;SDS011;52653;50.080;21.992;2023-07-16T07:59:47;5.40;;;3.50;;
65871;SDS011;52653;50.080;21.992;2023-07-16T08:02:41;5.00;;;3.30;;
65871;SDS011;52653;50.080;21.992;2023-07-16T08:05:26;5.40;;;3.40;;
65871;SDS011;52653;50.080;21.992;2023-07-16T08:07:59;5.90;;;3.40;;
65871;SDS011;52653;50.080;21.992;2023-07-16T08:10:43;4.60;;;3.40;;
65871;SDS011;52653;50.080;21.992;2023-07-16T08:13:22;4.60;;;3.30;;
65871;SDS011;52653;50.080;21.992;2023-07-16T08:15:58;5.70;;;3.70;;
65871;SDS011;52653;50.080;21.992;2023-07-16T08:18:40;5.40;;;3.60;;
65871;SDS011;52653;50.080;21.992;2023-07-16T08:21:33;6.50;;;3.30;;
65871;SDS011;52653;50.080;21.992;2023-07-16T08:24:27;4.90;;;3.20;;
65871;SDS011;52653;50.080;21.992;2023-07-16T08:27:20;5.30;;;3.40;;
65871;SDS011;52653;50.080;21.992;2023-07-16T08:30:13;5.20;;;3.40;;
65871;SDS011;52653;50.080;21.992;2023-07-16T08:32:59;6.50;;;3.40;;
65871;SDS011;52653;50.080;21.992;2023-07-16T08:35:52;7.20;;;3.40;;
65871;SDS011;52653;50.080;21.992;2023-07-16T08:38:45;4.60;;;3.10;;
65871;SDS011;52653;50.080;21.992;2023-07-16T08:41:27;5.80;;;3.50;;
65871;SDS011;52653;50.080;21.992;2023-07-16T08:44:13;6.90;;;3.20;;
65871;SDS011;52653;50.080;21.992;2023-07-16T08:46:47;5.10;;;3.20;;
65871;SDS011;52653;50.080;21.992;2023-07-16T08:49:41;6.60;;;3.50;;
65871;SDS011;52653;50.080;21.992;2023-07-16T08:52:29;4.60;;;3.10;;
65871;SDS011;52653;50.080;21.992;2023-07-16T08:55:15;4.40;;;3.40;;
65871;SDS011;52653;50.080;21.992;2023-07-16T08:58:08;5.40;;;3.30;;
65871;SDS011;52653;50.080;21.992;2023-07-16T09:00:42;5.90;;;3.80;;
65871;SDS011;52653;50.080;21.992;2023-07-16T09:03:19;5.30;;;3.50;;
65871;SDS011;52653;50.080;21.992;2023-07-16T09:06:11;6.00;;;3.20;;
65871;SDS011;52653;50.080;21.992;2023-07-16T09:09:04;5.20;;;3.50;;
65871;SDS011;52653;50.080;21.992;2023-07-16T09:11:47;5.60;;;3.60;;
65871;SDS011;52653;50.080;21.992;2023-07-16T09:14:29;4.30;;;3.00;;
65871;SDS011;52653;50.080;21.992;2023-07-16T09:17:20;5.80;;;3.60;;
65871;SDS011;52653;50.080;21.992;2023-07-16T09:20:15;5.50;;;3.30;;
65871;SDS011;52653;50.080;21.992;2023-07-16T09:23:00;6.10;;;3.50;;
65871;SDS011;52653;50.080;21.992;2023-07-16T09:25:33;6.20;;;3.50;;
65871;SDS011;52653;50.080;21.992;2023-07-16T09:28:06;5.80;;;4.00;;
65871;SDS011;52653;50.080;21.992;2023-07-16T09:31:04;6.60;;;3.70;;
65871;SDS011;52653;50.080;21.992;2023-07-16T09:33:38;4.60;;;3.70;;
65871;SDS011;52653;50.080;21.992;2023-07-16T09:36:10;6.00;;;3.50;;
65871;SDS011;52653;50.080;21.992;2023-07-16T09:38:56;4.60;;;3.50;;
65871;SDS011;52653;50.080;21.992;2023-07-16T09:41:31;5.90;;;3.60;;
65871;SDS011;52653;50.080;21.992;2023-07-16T09:44:25;6.20;;;3.50;;
65871;SDS011;52653;50.080;21.992;2023-07-16T09:47:03;5.70;;;3.90;;
65871;SDS011;52653;50.080;21.992;2023-07-16T09:49:56;4.60;;;3.90;;
65871;SDS011;52653;50.080;21.992;2023-07-16T09:52:35;7.00;;;4.10;;
65871;SDS011;52653;50.080;21.992;2023-07-16T09:55:17;5.70;;;3.70;;
65871;SDS011;52653;50.080;21.992;2023-07-16T09:58:12;5.10;;;3.80;;
65871;SDS011;52653;50.080;21.992;2023-07-16T10:00:50;4.90;;;4.00;;
65871;SDS011;52653;50.080;21.992;2023-07-16T10:03:49;4.80;;;3.40;;
65871;SDS011;52653;50.080;21.992;2023-07-16T10:06:35;6.20;;;3.70;;
65871;SDS011;52653;50.080;21.992;2023-07-16T10:09:10;5.90;;;3.90;;
65871;SDS011;52653;50.080;21.992;2023-07-16T10:12:13;6.00;;;3.90;;
65871;SDS011;52653;50.080;21.992;2023-07-16T10:15:01;5.60;;;3.90;;
65871;SDS011;52653;50.080;21.992;2023-07-16T10:17:50;5.30;;;3.80;;
65871;SDS011;52653;50.080;21.992;2023-07-16T10:20:34;7.40;;;4.40;;
65871;SDS011;52653;50.080;21.992;2023-07-16T10:23:37;6.90;;;3.70;;
65871;SDS011;52653;50.080;21.992;2023-07-16T10:26:19;5.60;;;4.20;;
65871;SDS011;52653;50.080;21.992;2023-07-16T10:28:59;5.50;;;4.00;;
65871;SDS011;52653;50.080;21.992;2023-07-16T10:31:32;6.20;;;4.00;;
65871;SDS011;52653;50.080;21.992;2023-07-16T10:34:14;6.60;;;4.00;;
65871;SDS011;52653;50.080;21.992;2023-07-16T10:36:49;6.90;;;3.90;;
65871;SDS011;52653;50.080;21.992;2023-07-16T10:39:31;6.20;;;3.90;;
65871;SDS011;52653;50.080;21.992;2023-07-16T10:42:25;6.10;;;4.20;;
65871;SDS011;52653;50.080;21.992;2023-07-16T10:45:21;5.20;;;3.90;;
65871;SDS011;52653;50.080;21.992;2023-07-16T10:48:04;6.90;;;4.20;;
65871;SDS011;52653;50.080;21.992;2023-07-16T10:50:54;7.60;;;4.30;;
65871;SDS011;52653;50.080;21.992;2023-07-16T10:53:41;6.70;;;4.50;;
65871;SDS011;52653;50.080;21.992;2023-07-16T10:56:18;4.60;;;3.60;;
65871;SDS011;52653;50.080;21.992;2023-07-16T10:59:02;5.70;;;4.00;;
65871;SDS011;52653;50.080;21.992;2023-07-16T11:01:57;6.30;;;4.20;;
65871;SDS011;52653;50.080;21.992;2023-07-16T11:04:41;5.50;;;4.10;;
65871;SDS011;52653;50.080;21.992;2023-07-16T11:07:34;5.60;;;4.30;;
65871;SDS011;52653;50.080;21.992;2023-07-16T11:10:29;5.80;;;4.30;;
65871;SDS011;52653;50.080;21.992;2023-07-16T11:13:12;6.10;;;4.10;;
65871;SDS011;52653;50.080;21.992;2023-07-16T11:16:08;5.60;;;4.30;;
65871;SDS011;52653;50.080;21.992;2023-07-16T11:18:50;7.10;;;4.10;;
65871;SDS011;52653;50.080;21.992;2023-07-16T11:21:28;6.80;;;4.30;;
65871;SDS011;52653;50.080;21.992;2023-07-16T11:24:12;6.30;;;4.00;;
65871;SDS011;52653;50.080;21.992;2023-07-16T11:26:56;5.30;;;3.70;;
65871;SDS011;52653;50.080;21.992;2023-07-16T11:29:36;5.10;;;4.10;;
65871;SDS011;52653;50.080;21.992;2023-07-16T11:32:25;5.00;;;3.80;;
65871;SDS011;52653;50.080;21.992;2023-07-16T11:35:04;6.80;;;4.10;;
65871;SDS011;52653;50.080;21.992;2023-07-16T11:37:40;6.00;;;4.30;;
65871;SDS011;52653;50.080;21.992;2023-07-16T11:40:33;5.70;;;3.90;;
65871;SDS011;52653;50.080;21.992;2023-07-16T11:43:09;5.80;;;3.90;;
65871;SDS011;52653;50.080;21.992;2023-07-16T11:46:03;7.40;;;4.20;;
65871;SDS011;52653;50.080;21.992;2023-07-16T11:49:08;5.30;;;4.00;;
65871;SDS011;52653;50.080;21.992;2023-07-16T11:52:02;6.00;;;4.30;;
65871;SDS011;52653;50.080;21.992;2023-07-16T11:54:46;6.00;;;4.70;;
65871;SDS011;52653;50.080;21.992;2023-07-16T11:57:39;6.50;;;4.60;;
65871;SDS011;52653;50.080;21.992;2023-07-16T12:02:57;6.10;;;4.50;;
65871;SDS011;52653;50.080;21.992;2023-07-16T12:05:32;5.40;;;4.30;;
65871;SDS011;52653;50.080;21.992;2023-07-16T12:08:42;5.60;;;4.10;;
65871;SDS011;52653;50.080;21.992;2023-07-16T12:11:25;4.70;;;3.90;;
65871;SDS011;52653;50.080;21.992;2023-07-16T12:14:07;6.10;;;3.90;;
65871;SDS011;52653;50.080;21.992;2023-07-16T12:17:02;5.10;;;3.80;;
65871;SDS011;52653;50.080;21.992;2023-07-16T12:19:35;4.60;;;3.90;;
65871;SDS011;52653;50.080;21.992;2023-07-16T12:22:11;5.70;;;4.10;;
65871;SDS011;52653;50.080;21.992;2023-07-16T12:25:06;5.80;;;4.30;;
65871;SDS011;52653;50.080;21.992;2023-07-16T12:28:00;5.30;;;4.30;;
65871;SDS011;52653;50.080;21.992;2023-07-16T12:30:35;5.20;;;4.40;;
65871;SDS011;52653;50.080;21.992;2023-07-16T12:33:29;6.90;;;4.60;;
65871;SDS011;52653;50.080;21.992;2023-07-16T12:36:14;5.70;;;4.50;;
65871;SDS011;52653;50.080;21.992;2023-07-16T12:38:56;6.50;;;4.30;;
65871;SDS011;52653;50.080;21.992;2023-07-16T12:41:50;5.90;;;4.20;;
65871;SDS011;52653;50.080;21.992;2023-07-16T12:44:28;7.00;;;4.60;;
65871;SDS011;52653;50.080;21.992;2023-07-16T12:47:15;5.50;;;4.30;;
65871;SDS011;52653;50.080;21.992;2023-07-16T12:49:59;6.40;;;4.40;;
65871;SDS011;52653;50.080;21.992;2023-07-16T12:52:34;7.00;;;4.50;;
65871;SDS011;52653;50.080;21.992;2023-07-16T12:55:27;6.70;;;4.70;;
65871;SDS011;52653;50.080;21.992;2023-07-16T12:58:03;4.70;;;4.20;;
65871;SDS011;52653;50.080;21.992;2023-07-16T13:00:36;6.20;;;4.40;;
65871;SDS011;52653;50.080;21.992;2023-07-16T13:03:31;6.20;;;4.30;;
65871;SDS011;52653;50.080;21.992;2023-07-16T13:06:15;5.60;;;4.20;;
65871;SDS011;52653;50.080;21.992;2023-07-16T13:09:08;5.50;;;4.50;;
65871;SDS011;52653;50.080;21.992;2023-07-16T13:12:01;5.00;;;4.20;;
65871;SDS011;52653;50.080;21.992;2023-07-16T13:14:45;7.40;;;4.20;;
65871;SDS011;52653;50.080;21.992;2023-07-16T13:17:39;5.00;;;4.10;;
65871;SDS011;52653;50.080;21.992;2023-07-16T13:20:23;7.00;;;4.50;;
65871;SDS011;52653;50.080;21.992;2023-07-16T13:23:09;5.50;;;4.60;;
65871;SDS011;52653;50.080;21.992;2023-07-16T13:26:02;5.40;;;4.90;;
65871;SDS011;52653;50.080;21.992;2023-07-16T13:28:37;5.90;;;4.60;;
65871;SDS011;52653;50.080;21.992;2023-07-16T13:31:25;6.30;;;4.90;;
65871;SDS011;52653;50.080;21.992;2023-07-16T13:34:07;5.30;;;4.60;;
65871;SDS011;52653;50.080;21.992;2023-07-16T13:36:39;6.10;;;4.80;;
65871;SDS011;52653;50.080;21.992;2023-07-16T13:39:12;5.90;;;4.50;;
65871;SDS011;52653;50.080;21.992;2023-07-16T13:41:56;5.60;;;4.40;;
65871;SDS011;52653;50.080;21.992;2023-07-16T13:45:00;5.90;;;4.30;;
65871;SDS011;52653;50.080;21.992;2023-07-16T13:47:37;6.20;;;4.70;;
65871;SDS011;52653;50.080;21.992;2023-07-16T13:50:13;6.50;;;4.60;;
65871;SDS011;52653;50.080;21.992;2023-07-16T13:53:06;5.60;;;4.90;;
65871;SDS011;52653;50.080;21.992;2023-07-16T13:55:48;6.50;;;4.80;;
65871;SDS011;52653;50.080;21.992;2023-07-16T13:58:35;5.60;;;4.40;;
65871;SDS011;52653;50.080;21.992;2023-07-16T14:01:17;5.80;;;4.30;;
65871;SDS011;52653;50.080;21.992;2023-07-16T14:04:01;6.60;;;4.60;;
65871;SDS011;52653;50.080;21.992;2023-07-16T14:06:44;6.10;;;4.60;;
65871;SDS011;52653;50.080;21.992;2023-07-16T14:09:32;7.40;;;4.80;;
65871;SDS011;52653;50.080;21.992;2023-07-16T14:12:09;6.60;;;4.50;;
65871;SDS011;52653;50.080;21.992;2023-07-16T14:15:04;6.00;;;4.50;;
65871;SDS011;52653;50.080;21.992;2023-07-16T14:17:41;5.40;;;4.30;;
65871;SDS011;52653;50.080;21.992;2023-07-16T14:20:14;5.10;;;4.00;;
65871;SDS011;52653;50.080;21.992;2023-07-16T14:22:51;7.10;;;4.10;;
65871;SDS011;52653;50.080;21.992;2023-07-16T14:25:35;6.20;;;4.60;;
65871;SDS011;52653;50.080;21.992;2023-07-16T14:31:02;6.50;;;4.70;;
65871;SDS011;52653;50.080;21.992;2023-07-16T14:33:45;6.30;;;4.70;;
65871;SDS011;52653;50.080;21.992;2023-07-16T14:36:18;8.50;;;4.90;;
65871;SDS011;52653;50.080;21.992;2023-07-16T14:39:04;5.30;;;4.60;;
65871;SDS011;52653;50.080;21.992;2023-07-16T14:41:57;6.40;;;4.30;;
65871;SDS011;52653;50.080;21.992;2023-07-16T14:44:43;7.60;;;4.50;;
65871;SDS011;52653;50.080;21.992;2023-07-16T14:47:35;6.20;;;4.40;;
65871;SDS011;52653;50.080;21.992;2023-07-16T14:50:28;7.00;;;4.30;;
65871;SDS011;52653;50.080;21.992;2023-07-16T14:53:21;5.30;;;4.30;;
65871;SDS011;52653;50.080;21.992;2023-07-16T14:56:05;5.10;;;4.60;;
65871;SDS011;52653;50.080;21.992;2023-07-16T14:58:42;8.00;;;4.40;;
65871;SDS011;52653;50.080;21.992;2023-07-16T15:01:36;6.20;;;4.70;;
65871;SDS011;52653;50.080;21.992;2023-07-16T15:04:29;7.20;;;4.70;;
65871;SDS011;52653;50.080;21.992;2023-07-16T15:07:22;6.60;;;4.50;;
65871;SDS011;52653;50.080;21.992;2023-07-16T15:10:14;6.50;;;5.00;;
65871;SDS011;52653;50.080;21.992;2023-07-16T15:12:47;5.40;;;4.70;;
65871;SDS011;52653;50.080;21.992;2023-07-16T15:15:24;5.30;;;4.50;;
65871;SDS011;52653;50.080;21.992;2023-07-16T15:18:09;5.20;;;4.70;;
65871;SDS011;52653;50.080;21.992;2023-07-16T15:21:02;7.50;;;4.60;;
65871;SDS011;52653;50.080;21.992;2023-07-16T15:24:01;7.00;;;4.60;;
65871;SDS011;52653;50.080;21.992;2023-07-16T15:26:45;7.90;;;4.80;;
65871;SDS011;52653;50.080;21.992;2023-07-16T15:29:38;5.00;;;4.20;;
65871;SDS011;52653;50.080;21.992;2023-07-16T15:32:25;7.00;;;5.00;;
65871;SDS011;52653;50.080;21.992;2023-07-16T15:35:12;6.20;;;4.80;;
65871;SDS011;52653;50.080;21.992;2023-07-16T15:37:44;5.40;;;4.80;;
65871;SDS011;52653;50.080;21.992;2023-07-16T15:40:34;7.70;;;4.90;;
65871;SDS011;52653;50.080;21.992;2023-07-16T15:43:07;5.30;;;4.50;;
65871;SDS011;52653;50.080;21.992;2023-07-16T15:45:59;7.10;;;5.40;;
65871;SDS011;52653;50.080;21.992;2023-07-16T15:48:35;6.00;;;4.50;;
65871;SDS011;52653;50.080;21.992;2023-07-16T15:51:35;5.80;;;4.80;;
65871;SDS011;52653;50.080;21.992;2023-07-16T15:54:19;6.90;;;4.70;;
65871;SDS011;52653;50.080;21.992;2023-07-16T15:57:12;7.00;;;4.70;;
65871;SDS011;52653;50.080;21.992;2023-07-16T16:00:06;7.50;;;5.10;;
65871;SDS011;52653;50.080;21.992;2023-07-16T16:02:44;7.70;;;5.10;;
65871;SDS011;52653;50.080;21.992;2023-07-16T16:05:38;5.70;;;5.10;;
65871;SDS011;52653;50.080;21.992;2023-07-16T16:08:32;5.90;;;4.80;;
65871;SDS011;52653;50.080;21.992;2023-07-16T16:11:26;6.70;;;5.60;;
65871;SDS011;52653;50.080;21.992;2023-07-16T16:14:19;6.30;;;4.90;;
65871;SDS011;52653;50.080;21.992;2023-07-16T16:17:12;6.90;;;5.10;;
65871;SDS011;52653;50.080;21.992;2023-07-16T16:20:07;6.50;;;5.10;;
65871;SDS011;52653;50.080;21.992;2023-07-16T16:23:01;6.20;;;5.10;;
65871;SDS011;52653;50.080;21.992;2023-07-16T16:25:45;6.60;;;5.20;;
65871;SDS011;52653;50.080;21.992;2023-07-16T16:28:38;6.60;;;5.00;;
65871;SDS011;52653;50.080;21.992;2023-07-16T16:31:31;5.50;;;4.80;;
65871;SDS011;52653;50.080;21.992;2023-07-16T16:34:24;6.40;;;4.90;;
65871;SDS011;52653;50.080;21.992;2023-07-16T16:37:16;6.40;;;4.90;;
65871;SDS011;52653;50.080;21.992;2023-07-16T16:40:11;5.80;;;5.20;;
65871;SDS011;52653;50.080;21.992;2023-07-16T16:43:04;5.70;;;5.10;;
65871;SDS011;52653;50.080;21.992;2023-07-16T16:45:59;7.40;;;5.80;;
65871;SDS011;52653;50.080;21.992;2023-07-16T16:48:53;8.80;;;6.00;;